createdAt,value
2022-08-10T00:00:57.121Z,100109.77
2022-08-10T00:03:23.633Z,100106.55
2022-08-10T00:05:52.984Z,100103.68
2022-08-10T00:08:24.038Z,100107.61
2022-08-10T00:10:56.018Z,100104.95
2022-08-10T00:13:24.032Z,100110.10
2022-08-10T00:15:54.900Z,100109.23
2022-08-10T00:18:34.776Z,100106.98
2022-08-10T00:21:07.993Z,100103.73
2022-08-10T00:23:37.459Z,100109.67
2022-08-10T00:26:05.674Z,100107.27
2022-08-10T00:28:32.235Z,100103.33
2022-08-10T00:30:59.271Z,100104.25
2022-08-10T00:33:26.123Z,100103.81
2022-08-10T00:35:52.658Z,100107.77
2022-08-10T00:38:19.195Z,100104.65
2022-08-10T00:40:46.128Z,100102.07
2022-08-10T00:43:12.868Z,100099.75
2022-08-10T00:45:39.885Z,100097.77
2022-08-10T00:48:06.646Z,100100.35
2022-08-10T00:50:33.727Z,100098.18
2022-08-10T00:53:00.931Z,100097.39
2022-08-10T00:55:27.987Z,100098.32
2022-08-10T00:57:55.714Z,100096.67
2022-08-10T01:00:24.136Z,100094.48
2022-08-10T01:02:51.489Z,100093.56
2022-08-10T01:05:19.664Z,100096.52
2022-08-10T01:08:10.045Z,100095.23
2022-08-10T01:11:01.745Z,100093.75
2022-08-10T01:13:40.744Z,100093.58
2022-08-10T01:16:20.661Z,100095.82
2022-08-10T01:18:54.558Z,100094.84
2022-08-10T01:21:57.126Z,100095.88
2022-08-10T01:24:37.668Z,100094.77
2022-08-10T01:27:20.780Z,100100.73
2022-08-10T01:30:04.695Z,100098.95
2022-08-10T01:32:37.089Z,100103.34
2022-08-10T01:35:39.282Z,100099.64
2022-08-10T01:38:11.168Z,100098.16
2022-08-10T01:40:44.622Z,100100.92
2022-08-10T01:43:15.819Z,100099.05
2022-08-10T01:45:46.014Z,100101.40
2022-08-10T01:48:28.466Z,100098.04
2022-08-10T01:51:04.249Z,100095.84
2022-08-10T01:53:40.989Z,100094.21
2022-08-10T01:56:14.883Z,100088.33
2022-08-10T01:58:46.128Z,100085.28
2022-08-10T02:01:16.870Z,100090.41
2022-08-10T02:04:04.270Z,100095.21
2022-08-10T02:06:37.937Z,100089.41
2022-08-10T02:09:07.310Z,100095.39
2022-08-10T02:12:05.090Z,100096.44
2022-08-10T02:14:33.515Z,100099.96
2022-08-10T02:17:59.593Z,100101.35
2022-08-10T02:20:05.151Z,100099.29
2022-08-10T02:22:38.408Z,100102.98
2022-08-10T02:25:09.607Z,100104.61
2022-08-10T02:27:57.651Z,100105.01
2022-08-10T02:30:26.023Z,100110.10
2022-08-10T02:32:54.668Z,100111.23
2022-08-10T02:35:23.374Z,100111.72
2022-08-10T02:37:57.227Z,100105.34
2022-08-10T02:45:13.653Z,100104.54
2022-08-10T02:45:20.592Z,100104.96
2022-08-10T02:46:46.448Z,100108.08
2022-08-10T02:49:21.208Z,100110.88
2022-08-10T02:52:07.635Z,100113.45
2022-08-10T02:54:42.651Z,100118.33
2022-08-10T02:57:16.144Z,100114.85
2022-08-10T02:59:49.315Z,100118.11
2022-08-10T03:02:42.127Z,100118.64
2022-08-10T03:05:14.067Z,100116.71
2022-08-10T03:07:49.365Z,100113.16
2022-08-10T03:10:21.129Z,100110.23
2022-08-10T03:12:51.687Z,100112.99
2022-08-10T03:15:21.436Z,100113.48
2022-08-10T03:17:58.249Z,100111.48
2022-08-10T03:20:40.486Z,100113.38
2022-08-10T03:23:22.824Z,100120.07
2022-08-10T03:25:54.063Z,100118.98
2022-08-10T03:28:28.943Z,100124.17
2022-08-10T03:30:59.756Z,100123.86
2022-08-10T03:33:32.579Z,100124.46
2022-08-10T03:36:43.572Z,100122.94
2022-08-10T03:38:50.988Z,100123.70
2022-08-10T03:41:35.948Z,100120.23
2022-08-10T03:44:06.295Z,100117.77
2022-08-10T03:46:37.719Z,100122.71
2022-08-10T03:49:05.487Z,100119.54
2022-08-10T03:51:34.352Z,100118.39
2022-08-10T03:54:07.299Z,100119.62
2022-08-10T03:56:37.036Z,100119.73
2022-08-10T03:59:11.485Z,100118.39
2022-08-10T04:02:44.274Z,100119.33
2022-08-10T04:04:33.930Z,100117.01
2022-08-10T04:07:03.063Z,100118.36
2022-08-10T04:09:54.413Z,100110.61
2022-08-10T04:12:20.029Z,100115.42
2022-08-10T04:14:50.358Z,100119.84
2022-08-10T04:17:57.081Z,100115.27
2022-08-10T04:20:19.299Z,100118.53
2022-08-10T04:22:51.778Z,100116.48
2022-08-10T04:25:20.454Z,100114.00
2022-08-10T04:27:48.568Z,100110.83
2022-08-10T04:30:16.008Z,100109.23
2022-08-10T04:32:47.398Z,100110.70
2022-08-10T04:35:18.466Z,100115.89
2022-08-10T04:37:50.439Z,100116.68
2022-08-10T04:40:29.351Z,100122.60
2022-08-10T04:43:01.403Z,100121.71
2022-08-10T04:45:48.328Z,100126.36
2022-08-10T04:48:42.687Z,100126.06
2022-08-10T04:51:19.337Z,100128.98
2022-08-10T04:54:05.024Z,100134.67
2022-08-10T04:56:38.615Z,100140.15
2022-08-10T04:59:10.246Z,100149.30
2022-08-10T05:02:22.051Z,100149.42
2022-08-10T05:04:33.793Z,100149.54
2022-08-10T05:07:09.650Z,100147.08
2022-08-10T05:10:01.516Z,100151.67
2022-08-10T05:12:28.966Z,100147.39
2022-08-10T05:14:55.890Z,100148.75
2022-08-10T05:17:23.845Z,100143.51
2022-08-10T05:20:03.945Z,100147.54
2022-08-10T05:22:41.002Z,100145.53
2022-08-10T05:25:10.768Z,100142.30
2022-08-10T05:27:38.752Z,100144.55
2022-08-10T05:30:07.292Z,100143.91
2022-08-10T05:32:56.754Z,100143.27
2022-08-10T05:35:22.663Z,100141.35
2022-08-10T05:38:12.127Z,100142.60
2022-08-10T05:40:40.524Z,100145.05
2022-08-10T05:43:09.082Z,100147.71
2022-08-10T05:46:17.683Z,100146.81
2022-08-10T05:48:41.561Z,100147.45
2022-08-10T05:51:10.497Z,100149.83
2022-08-10T05:54:02.154Z,100149.33
2022-08-10T05:56:26.318Z,100144.61
2022-08-10T05:58:53.136Z,100142.05
2022-08-10T06:01:24.373Z,100144.11
2022-08-10T06:03:57.975Z,100144.94
2022-08-10T06:06:28.179Z,100148.81
2022-08-10T06:08:56.013Z,100148.06
2022-08-10T06:12:27.102Z,100152.46
2022-08-10T06:14:32.096Z,100155.19
2022-08-10T06:17:00.693Z,100146.60
2022-08-10T06:19:27.676Z,100149.36
2022-08-10T06:22:01.478Z,100153.70
2022-08-10T06:24:30.728Z,100152.02
2022-08-10T06:26:58.718Z,100154.65
2022-08-10T06:29:30.279Z,100155.65
2022-08-10T06:31:59.068Z,100157.73
2022-08-10T06:34:29.941Z,100159.51
2022-08-10T06:37:01.208Z,100159.03
2022-08-10T06:39:36.634Z,100156.11
2022-08-10T06:42:17.715Z,100161.05
2022-08-10T06:44:55.004Z,100159.05
2022-08-10T06:47:29.729Z,100160.58
2022-08-10T06:50:08.682Z,100157.73
2022-08-10T06:52:37.871Z,100157.65
2022-08-10T06:55:08.509Z,100156.84
2022-08-10T06:57:38.182Z,100161.76
2022-08-10T07:00:07.704Z,100159.40
2022-08-10T07:02:43.724Z,100159.09
2022-08-10T07:05:16.780Z,100156.67
2022-08-10T07:07:46.282Z,100161.67
2022-08-10T07:10:18.232Z,100161.55
2022-08-10T07:12:47.672Z,100158.57
2022-08-10T07:15:16.793Z,100160.17
2022-08-10T07:17:45.675Z,100158.67
2022-08-10T07:20:17.068Z,100160.14
2022-08-10T07:23:08.706Z,100162.17
2022-08-10T07:25:41.688Z,100158.43
2022-08-10T07:28:09.861Z,100160.67
2022-08-10T07:30:40.113Z,100160.15
2022-08-10T07:33:09.053Z,100164.51
2022-08-10T07:35:43.160Z,100168.02
2022-08-10T07:38:21.258Z,100165.38
2022-08-10T07:40:50.726Z,100168.42
2022-08-10T07:43:21.357Z,100167.11
2022-08-10T07:45:49.066Z,100165.73
2022-08-10T07:48:26.882Z,100166.36
2022-08-10T07:50:58.956Z,100170.36
2022-08-10T07:53:38.058Z,100169.65
2022-08-10T07:56:16.870Z,100167.65
2022-08-10T07:59:02.535Z,100168.46
2022-08-10T08:01:34.371Z,100170.53
2022-08-10T08:04:10.563Z,100169.95
2022-08-10T08:06:41.926Z,100176.21
2022-08-10T08:09:10.697Z,100179.18
2022-08-10T08:11:40.696Z,100176.84
2022-08-10T08:14:08.515Z,100178.86
2022-08-10T08:16:41.275Z,100179.34
2022-08-10T08:19:26.851Z,100179.17
2022-08-10T08:24:09.123Z,100184.58
2022-08-10T08:24:44.480Z,100183.08
2022-08-10T08:27:16.182Z,100187.98
2022-08-10T08:29:46.567Z,100186.44
2022-08-10T08:32:17.166Z,100185.67
2022-08-10T08:34:44.726Z,100180.77
2022-08-10T08:38:31.279Z,100182.24
2022-08-10T08:40:05.663Z,100175.52
2022-08-10T08:43:05.281Z,100181.19
2022-08-10T08:45:54.096Z,100179.80
2022-08-10T08:49:05.091Z,100179.30
2022-08-10T08:52:18.620Z,100174.40
2022-08-10T08:55:02.739Z,100174.71
2022-08-10T08:57:50.425Z,100173.52
2022-08-10T09:00:55.506Z,100162.56
2022-08-10T09:03:37.582Z,100163.02
2022-08-10T09:06:22.542Z,100153.96
2022-08-10T09:09:34.478Z,100154.25
2022-08-10T09:12:40.314Z,100160.61
2022-08-10T09:15:39.666Z,100161.95
2022-08-10T09:18:07.604Z,100156.87
2022-08-10T09:21:05.984Z,100160.43
2022-08-10T09:24:04.495Z,100159.33
2022-08-10T09:26:45.138Z,100158.87
2022-08-10T09:29:17.869Z,100156.14
2022-08-10T09:36:13.563Z,100152.02
2022-08-10T09:36:23.160Z,100153.12
2022-08-10T09:38:12.300Z,100153.34
2022-08-10T09:40:59.453Z,100152.39
2022-08-10T09:43:50.763Z,100150.95
2022-08-10T09:46:33.290Z,100155.11
2022-08-10T09:49:54.500Z,100155.08
2022-08-10T09:52:31.280Z,100147.20
2022-08-10T09:56:18.966Z,100145.19
2022-08-10T09:58:36.311Z,100149.91
2022-08-10T10:01:57.901Z,100149.81
2022-08-10T10:04:15.856Z,100144.88
2022-08-10T10:06:58.814Z,100144.56
2022-08-10T10:09:44.097Z,100144.53
2022-08-10T10:12:39.375Z,100142.72
2022-08-10T10:15:37.123Z,100141.77
2022-08-10T10:18:29.521Z,100134.00
2022-08-10T10:21:54.534Z,100132.55
2022-08-10T10:24:56.359Z,100124.71
2022-08-10T10:27:37.600Z,100123.77
2022-08-10T10:30:27.248Z,100121.65
2022-08-10T10:33:13.331Z,100117.80
2022-08-10T10:35:51.674Z,100113.70
2022-08-10T10:38:21.565Z,100112.81
2022-08-10T10:41:19.629Z,100114.23
2022-08-10T10:44:21.164Z,100115.58
2022-08-10T10:47:09.553Z,100110.59
2022-08-10T10:49:49.298Z,100103.40
2022-08-10T10:52:45.017Z,100105.34
2022-08-10T10:55:18.449Z,100102.05
2022-08-10T10:58:20.671Z,100103.00
2022-08-10T11:01:01.614Z,100095.70
2022-08-10T11:03:50.233Z,100093.48
2022-08-10T11:06:52.038Z,100091.16
2022-08-10T11:10:09.500Z,100094.34
2022-08-10T11:12:45.701Z,100096.70
2022-08-10T11:15:29.868Z,100094.60
2022-08-10T11:18:08.698Z,100094.41
2022-08-10T11:20:44.979Z,100101.50
2022-08-10T11:23:33.467Z,100098.48
2022-08-10T11:26:25.578Z,100097.95
2022-08-10T11:29:20.052Z,100097.01
2022-08-10T11:32:20.529Z,100090.78
2022-08-10T11:35:36.898Z,100089.00
2022-08-10T11:38:28.432Z,100082.41
2022-08-10T11:42:05.739Z,100081.59
2022-08-10T11:44:18.324Z,100080.08
2022-08-10T11:47:00.992Z,100073.09
2022-08-10T11:49:37.216Z,100076.75
2022-08-10T11:52:10.562Z,100076.42
2022-08-10T11:54:50.794Z,100069.11
2022-08-10T11:57:19.546Z,100067.66
2022-08-10T11:59:57.959Z,100068.53
2022-08-10T12:02:44.171Z,100066.10
2022-08-10T12:05:23.974Z,100069.92
2022-08-10T12:10:01.775Z,100067.27
2022-08-10T12:10:58.917Z,100063.39
2022-08-10T12:13:30.557Z,100061.15
2022-08-10T12:16:14.757Z,100049.65
2022-08-10T12:19:01.464Z,100045.89
2022-08-10T12:21:40.027Z,100052.83
2022-08-10T12:24:32.318Z,100055.64
2022-08-10T12:27:07.493Z,100060.16
2022-08-10T12:29:51.839Z,100054.35
2022-08-10T12:32:30.865Z,100049.00
2022-08-10T12:35:27.396Z,100044.43
2022-08-10T12:38:49.834Z,100045.80
2022-08-10T12:41:43.146Z,100048.20
2022-08-10T12:44:14.439Z,100042.92
2022-08-10T12:47:05.757Z,100043.40
2022-08-10T12:50:13.680Z,100038.80
2022-08-10T12:53:14.480Z,100036.47
2022-08-10T12:55:43.709Z,100030.86
2022-08-10T12:58:59.558Z,100031.77
2022-08-10T13:01:16.087Z,100026.79
2022-08-10T13:04:21.423Z,100026.36
2022-08-10T13:06:46.898Z,100016.35
2022-08-10T13:09:56.127Z,100020.04
2022-08-10T13:12:39.015Z,100013.77
2022-08-10T13:15:45.593Z,100009.89
2022-08-10T13:18:06.631Z,100009.46
2022-08-10T13:20:52.253Z,100008.08
2022-08-10T13:23:22.328Z,100008.40
2022-08-10T13:25:51.681Z,100001.96
2022-08-10T13:28:45.654Z,100000.85
2022-08-10T13:31:19.226Z,99997.36
2022-08-10T13:34:41.522Z,99997.20
2022-08-10T13:36:41.163Z,99995.04
2022-08-10T13:39:07.937Z,100001.08
2022-08-10T13:41:40.372Z,99996.68
2022-08-10T13:44:10.989Z,99996.20
2022-08-10T13:46:41.600Z,99996.23
2022-08-10T13:49:11.126Z,99992.65
2022-08-10T13:51:56.726Z,99990.47
2022-08-10T13:54:36.158Z,99981.83
2022-08-10T13:57:04.169Z,99983.21
2022-08-10T14:00:33.797Z,99984.23
2022-08-10T14:02:28.115Z,99979.92
2022-08-10T14:04:57.674Z,99977.97
2022-08-10T14:07:27.569Z,99975.14
2022-08-10T14:10:06.580Z,99970.17
2022-08-10T14:12:40.950Z,99974.36
2022-08-10T14:15:13.955Z,99971.83
2022-08-10T14:17:44.939Z,99969.93
2022-08-10T14:20:19.277Z,99968.91
2022-08-10T14:22:48.197Z,99966.91
2022-08-10T14:25:15.970Z,99969.75
2022-08-10T14:28:01.954Z,99966.20
2022-08-10T14:30:32.406Z,99966.00
2022-08-10T14:33:03.783Z,99963.09
2022-08-10T14:36:18.537Z,99963.89
2022-08-10T14:38:31.542Z,99969.08
2022-08-10T14:41:01.159Z,99967.22
2022-08-10T14:43:53.679Z,99968.84
2022-08-10T14:46:23.583Z,99973.19
2022-08-10T14:48:52.996Z,99972.14
2022-08-10T14:51:25.731Z,99968.12
2022-08-10T14:53:56.427Z,99967.61
2022-08-10T14:56:30.447Z,99959.50
2022-08-10T14:59:06.700Z,99961.90
2022-08-10T15:02:00.963Z,99959.35
2022-08-10T15:04:29.217Z,99958.29
2022-08-10T15:07:23.057Z,99956.85
2022-08-10T15:10:00.944Z,99951.83
2022-08-10T15:12:35.466Z,99952.09
2022-08-10T15:15:05.854Z,99949.73
2022-08-10T15:17:36.592Z,99951.66
2022-08-10T15:20:20.613Z,99954.63
2022-08-10T15:22:52.236Z,99948.20
2022-08-10T15:25:25.057Z,99950.80
2022-08-10T15:27:55.916Z,99950.27
2022-08-10T15:30:30.670Z,99948.78
2022-08-10T15:33:59.455Z,99945.58
2022-08-10T15:37:02.453Z,99942.20
2022-08-10T15:40:21.697Z,99942.61
2022-08-10T15:42:54.341Z,99945.22
2022-08-10T15:45:22.856Z,99944.05
2022-08-10T15:48:02.476Z,99941.74
2022-08-10T15:50:33.885Z,99946.23
2022-08-10T15:53:08.945Z,99943.47
2022-08-10T15:55:58.263Z,99941.09
2022-08-10T15:58:39.860Z,99938.14
2022-08-10T16:02:04.594Z,99935.52
2022-08-10T16:04:34.558Z,99934.42
2022-08-10T16:07:11.834Z,99932.95
2022-08-10T16:10:11.033Z,99931.43
2022-08-10T16:12:42.714Z,99929.47
2022-08-10T16:15:17.810Z,99931.22
2022-08-10T16:17:55.778Z,99930.98
2022-08-10T16:20:53.552Z,99929.58
2022-08-10T16:23:25.684Z,99924.33
2022-08-10T16:26:13.499Z,99920.40
2022-08-10T16:28:54.645Z,99920.45
2022-08-10T16:31:25.066Z,99916.50
2022-08-10T16:33:55.499Z,99919.60
2022-08-10T16:36:31.581Z,99911.67
2022-08-10T16:38:59.298Z,99916.56
2022-08-10T16:42:03.456Z,99915.14
2022-08-10T16:44:18.084Z,99918.45
2022-08-10T16:46:47.541Z,99914.77
2022-08-10T16:49:17.415Z,99913.83
2022-08-10T16:52:08.673Z,99909.55
2022-08-10T16:54:39.202Z,99908.64
2022-08-10T16:57:10.866Z,99907.41
2022-08-10T16:59:39.925Z,99904.21
2022-08-10T17:02:11.097Z,99904.48
2022-08-10T17:04:43.626Z,99903.14
2022-08-10T17:07:15.600Z,99901.06
2022-08-10T17:09:48.826Z,99904.41
2022-08-10T17:12:19.817Z,99905.54
2022-08-10T17:14:52.482Z,99906.12
2022-08-10T17:17:45.925Z,99907.84
2022-08-10T17:20:30.748Z,99910.08
2022-08-10T17:23:10.421Z,99910.63
2022-08-10T17:25:48.795Z,99912.95
2022-08-10T17:28:34.826Z,99913.31
2022-08-10T17:31:23.610Z,99910.85
2022-08-10T17:34:02.532Z,99914.77
2022-08-10T17:36:34.749Z,99918.20
2022-08-10T17:39:05.165Z,99912.91
2022-08-10T17:41:36.513Z,99911.33
2022-08-10T17:44:04.847Z,99914.56
2022-08-10T17:46:37.933Z,99913.71
2022-08-10T17:49:11.802Z,99910.14
2022-08-10T17:51:41.952Z,99912.45
2022-08-10T17:54:21.369Z,99911.70
2022-08-10T17:56:52.161Z,99910.56
2022-08-10T17:59:24.130Z,99916.27
2022-08-10T18:02:01.649Z,99915.73
2022-08-10T18:04:41.469Z,99916.45
2022-08-10T18:07:12.986Z,99917.89
2022-08-10T18:09:55.520Z,99916.52
2022-08-10T18:12:34.710Z,99918.79
2022-08-10T18:15:13.395Z,99918.19
2022-08-10T18:17:45.708Z,99922.83
2022-08-10T18:20:14.337Z,99928.38
2022-08-10T18:22:48.450Z,99931.74
2022-08-10T18:25:22.428Z,99930.41
2022-08-10T18:28:03.751Z,99930.25
2022-08-10T18:30:36.237Z,99930.45
2022-08-10T18:33:08.843Z,99929.05
2022-08-10T18:35:39.120Z,99934.23
2022-08-10T18:38:11.589Z,99937.75
2022-08-10T18:40:50.721Z,99934.77
2022-08-10T18:44:10.344Z,99935.39
2022-08-10T18:46:12.492Z,99937.30
2022-08-10T18:48:49.500Z,99936.05
2022-08-10T18:51:24.823Z,99935.46
2022-08-10T18:54:05.180Z,99935.07
2022-08-10T18:56:39.453Z,99935.75
2022-08-10T18:59:20.809Z,99939.73
2022-08-10T19:02:22.162Z,99937.73
2022-08-10T19:05:30.148Z,99938.16
2022-08-10T19:08:30.751Z,99935.73
2022-08-10T19:11:28.360Z,99940.45
2022-08-10T19:14:03.181Z,99943.55
2022-08-10T19:16:53.753Z,99948.16
2022-08-10T19:19:33.597Z,99947.27
2022-08-10T19:22:07.726Z,99949.31
2022-08-10T19:24:57.547Z,99945.90
2022-08-10T19:27:51.741Z,99949.83
2022-08-10T19:30:28.586Z,99948.88
2022-08-10T19:33:04.597Z,99950.39
2022-08-10T19:36:03.508Z,99949.08
2022-08-10T19:38:51.277Z,99947.42
2022-08-10T19:41:44.694Z,99945.56
2022-08-10T19:44:31.679Z,99937.73
2022-08-10T19:47:25.819Z,99941.61
2022-08-10T19:50:18.815Z,99939.52
2022-08-10T19:53:24.978Z,99941.55
2022-08-10T19:56:18.531Z,99940.02
2022-08-10T19:59:03.266Z,99938.36
2022-08-10T20:01:54.394Z,99935.38
2022-08-10T20:04:35.997Z,99931.90
2022-08-10T20:07:27.217Z,99936.98
2022-08-10T20:10:00.216Z,99934.63
2022-08-10T20:12:50.639Z,99938.79
2022-08-10T20:15:42.256Z,99933.67
2022-08-10T20:18:34.052Z,99935.02
2022-08-10T20:21:25.020Z,99943.60
2022-08-10T20:23:57.766Z,99945.08
2022-08-10T20:26:28.214Z,99946.28
2022-08-10T20:29:04.330Z,99944.12
2022-08-10T20:31:45.435Z,99940.44
2022-08-10T20:34:20.839Z,99940.10
2022-08-10T20:37:06.257Z,99939.23
2022-08-10T20:39:56.159Z,99940.07
2022-08-10T20:42:31.558Z,99944.23
2022-08-10T20:45:19.606Z,99944.23
2022-08-10T20:48:25.547Z,99947.77
2022-08-10T20:51:13.483Z,99947.55
2022-08-10T20:53:51.315Z,99944.13
2022-08-10T20:56:47.805Z,99946.23
2022-08-10T21:00:04.606Z,99945.65
2022-08-10T21:02:48.974Z,99948.48
2022-08-10T21:05:34.364Z,99950.87
2022-08-10T21:08:17.279Z,99951.41
2022-08-10T21:11:06.442Z,99950.25
2022-08-10T21:14:11.292Z,99948.39
2022-08-10T21:17:06.715Z,99951.75
2022-08-10T21:19:59.368Z,99947.79
2022-08-10T21:22:34.459Z,99946.09
2022-08-10T21:25:29.451Z,99945.27
2022-08-10T21:28:29.150Z,99944.52
2022-08-10T21:31:36.298Z,99937.64
2022-08-10T21:34:37.369Z,99942.12
2022-08-10T21:37:19.962Z,99936.52
2022-08-10T21:40:05.989Z,99937.82
2022-08-10T21:43:32.170Z,99939.96
2022-08-10T21:46:59.158Z,99941.42
2022-08-10T21:50:27.293Z,99948.77
2022-08-10T21:53:44.633Z,99944.33
2022-08-10T21:56:47.732Z,99946.77
2022-08-10T21:59:45.027Z,99947.38
2022-08-10T22:02:49.765Z,99948.38
2022-08-10T22:05:48.472Z,99947.10
2022-08-10T22:08:38.441Z,99949.74
2022-08-10T22:11:29.257Z,99951.82
2022-08-10T22:14:15.446Z,99949.52
2022-08-10T22:18:03.294Z,99947.66
2022-08-10T22:20:35.841Z,99945.16
2022-08-10T22:24:16.996Z,99943.13
2022-08-10T22:27:46.614Z,99936.78
2022-08-10T22:30:28.037Z,99932.16
2022-08-10T22:33:37.689Z,99934.35
2022-08-10T22:36:56.868Z,99940.48
2022-08-10T22:40:12.101Z,99943.24
2022-08-10T22:43:11.132Z,99943.31
2022-08-10T22:46:08.132Z,99945.01
2022-08-10T22:48:59.176Z,99942.73
2022-08-10T22:51:36.106Z,99943.66
2022-08-10T22:54:46.204Z,99939.91
2022-08-10T22:57:36.661Z,99942.25
2022-08-10T23:00:31.225Z,99937.39
2022-08-10T23:03:10.765Z,99934.83
2022-08-10T23:05:50.360Z,99936.11
2022-08-10T23:08:33.798Z,99933.55
2022-08-10T23:11:07.655Z,99932.00
2022-08-10T23:13:41.329Z,99933.23
2022-08-10T23:16:33.138Z,99934.93
2022-08-10T23:19:11.569Z,99933.96
2022-08-10T23:22:03.140Z,99934.34
2022-08-10T23:24:44.481Z,99938.96
2022-08-10T23:27:37.392Z,99936.52
2022-08-10T23:30:11.154Z,99944.48
2022-08-10T23:32:51.393Z,99944.17
2022-08-10T23:36:30.006Z,99941.59
2022-08-10T23:38:16.620Z,99938.09
2022-08-10T23:40:46.970Z,99934.29
2022-08-10T23:43:53.345Z,99934.79
2022-08-10T23:46:21.667Z,99935.64
2022-08-10T23:48:53.772Z,99938.06
2022-08-10T23:51:54.888Z,99937.67
2022-08-10T23:54:25.820Z,99936.21
2022-08-10T23:57:00.991Z,99932.08
2022-08-10T23:59:31.679Z,99936.06
